createdAt,value
2023-04-24T00:00:22.449Z,420.00
2023-04-24T00:01:22.476Z,418.00
2023-04-24T00:02:22.688Z,419.00
2023-04-24T00:03:22.637Z,418.00
2023-04-24T00:04:22.732Z,417.00
2023-04-24T00:05:22.632Z,418.00
2023-04-24T00:06:22.667Z,418.00
2023-04-24T00:07:22.673Z,415.00
2023-04-24T00:08:22.735Z,417.00
2023-04-24T00:09:22.778Z,420.00
2023-04-24T00:10:22.870Z,418.00
2023-04-24T00:11:22.834Z,418.00
2023-04-24T00:12:22.874Z,418.00
2023-04-24T00:13:22.904Z,418.00
2023-04-24T00:14:22.989Z,419.00
2023-04-24T00:15:23.050Z,417.00
2023-04-24T00:16:23.068Z,418.00
2023-04-24T00:17:23.102Z,414.00
2023-04-24T00:18:23.161Z,416.00
2023-04-24T00:19:23.205Z,416.00
2023-04-24T00:20:23.260Z,413.00
2023-04-24T00:21:23.356Z,413.00
2023-04-24T00:22:23.419Z,416.00
2023-04-24T00:23:23.470Z,417.00
2023-04-24T00:24:23.567Z,421.00
2023-04-24T00:25:23.610Z,421.00
2023-04-24T00:26:23.641Z,419.00
2023-04-24T00:27:23.731Z,422.00
2023-04-24T00:28:23.792Z,422.00
2023-04-24T00:29:23.886Z,418.00
2023-04-24T00:30:23.969Z,417.00
2023-04-24T00:31:24.085Z,419.00
2023-04-24T00:32:24.093Z,417.00
2023-04-24T00:33:24.111Z,416.00
2023-04-24T00:34:24.141Z,417.00
2023-04-24T00:35:24.212Z,414.00
2023-04-24T00:36:24.303Z,417.00
2023-04-24T00:37:24.388Z,414.00
2023-04-24T00:38:24.391Z,413.00
2023-04-24T00:39:24.489Z,410.00
2023-04-24T00:40:24.582Z,409.00
2023-04-24T00:41:24.616Z,409.00
2023-04-24T00:42:24.665Z,410.00
2023-04-24T00:43:24.723Z,412.00
2023-04-24T00:44:24.820Z,415.00
2023-04-24T00:45:24.868Z,417.00
2023-04-24T00:46:24.937Z,416.00
2023-04-24T00:47:24.954Z,415.00
2023-04-24T00:48:25.030Z,417.00
2023-04-24T00:49:25.100Z,416.00
2023-04-24T00:50:25.173Z,417.00
2023-04-24T00:51:25.207Z,418.00
2023-04-24T00:52:25.406Z,418.00
2023-04-24T00:53:25.305Z,422.00
2023-04-24T00:54:25.381Z,425.00
2023-04-24T00:55:25.460Z,425.00
2023-04-24T00:56:25.485Z,424.00
2023-04-24T00:57:25.585Z,424.00
2023-04-24T00:58:25.651Z,426.00
2023-04-24T00:59:25.674Z,426.00
2023-04-24T01:00:25.796Z,424.00
2023-04-24T01:01:25.850Z,425.00
2023-04-24T01:02:26.034Z,424.00
2023-04-24T01:03:26.033Z,423.00
2023-04-24T01:04:26.166Z,421.00
2023-04-24T01:05:26.094Z,420.00
2023-04-24T01:06:26.093Z,421.00
2023-04-24T01:07:26.180Z,421.00
2023-04-24T01:08:26.256Z,423.00
2023-04-24T01:09:26.322Z,425.00
2023-04-24T01:10:26.371Z,423.00
2023-04-24T01:11:26.458Z,422.00
2023-04-24T01:12:26.468Z,422.00
2023-04-24T01:13:26.561Z,422.00
2023-04-24T01:14:26.621Z,421.00
2023-04-24T01:15:26.642Z,421.00
2023-04-24T01:16:26.772Z,421.00
2023-04-24T01:17:26.766Z,422.00
2023-04-24T01:18:26.809Z,423.00
2023-04-24T01:19:26.846Z,423.00
2023-04-24T01:20:26.890Z,423.00
2023-04-24T01:21:26.978Z,425.00
2023-04-24T01:22:27.028Z,422.00
2023-04-24T01:23:27.085Z,422.00
2023-04-24T01:24:27.171Z,425.00
2023-04-24T01:25:27.214Z,426.00
2023-04-24T01:26:27.285Z,426.00
2023-04-24T01:27:27.348Z,427.00
2023-04-24T01:28:27.399Z,429.00
2023-04-24T01:29:27.459Z,428.00
2023-04-24T01:30:27.519Z,427.00
2023-04-24T01:31:27.657Z,425.00
2023-04-24T01:32:27.660Z,426.00
2023-04-24T01:33:27.689Z,425.00
2023-04-24T01:34:27.770Z,425.00
2023-04-24T01:35:27.817Z,423.00
2023-04-24T01:36:27.882Z,421.00
2023-04-24T01:37:27.969Z,421.00
2023-04-24T01:38:27.988Z,424.00
2023-04-24T01:39:28.033Z,424.00
2023-04-24T01:40:28.064Z,423.00
2023-04-24T01:41:28.152Z,423.00
2023-04-24T01:42:28.185Z,422.00
2023-04-24T01:43:28.265Z,419.00
2023-04-24T01:44:28.325Z,417.00
2023-04-24T01:45:28.358Z,413.00
2023-04-24T01:46:28.504Z,413.00
2023-04-24T01:47:28.518Z,413.00
2023-04-24T01:48:28.534Z,412.00
2023-04-24T01:49:28.620Z,411.00
2023-04-24T01:50:28.684Z,412.00
2023-04-24T01:51:28.719Z,413.00
2023-04-24T01:52:28.757Z,419.00
2023-04-24T01:53:28.812Z,419.00
2023-04-24T01:54:28.848Z,420.00
2023-04-24T01:55:28.916Z,422.00
2023-04-24T01:56:28.962Z,420.00
2023-04-24T01:57:29.038Z,422.00
2023-04-24T01:58:29.068Z,425.00
2023-04-24T01:59:29.118Z,424.00
2023-04-24T02:00:29.160Z,423.00
2023-04-24T02:01:29.254Z,422.00
2023-04-24T02:02:29.344Z,424.00
2023-04-24T02:03:29.444Z,424.00
2023-04-24T02:04:29.350Z,423.00
2023-04-24T02:05:29.399Z,421.00
2023-04-24T02:06:29.443Z,422.00
2023-04-24T02:07:29.451Z,423.00
2023-04-24T02:08:29.520Z,420.00
2023-04-24T02:09:29.533Z,421.00
2023-04-24T02:10:29.592Z,423.00
2023-04-24T02:11:29.635Z,422.00
2023-04-24T02:12:29.657Z,424.00
2023-04-24T02:13:29.739Z,424.00
2023-04-24T02:14:29.767Z,425.00
2023-04-24T02:15:29.765Z,425.00
2023-04-24T02:16:29.888Z,424.00
2023-04-24T02:17:29.933Z,424.00
2023-04-24T02:18:29.908Z,424.00
2023-04-24T02:19:29.936Z,421.00
2023-04-24T02:20:29.980Z,418.00
2023-04-24T02:21:30.006Z,417.00
2023-04-24T02:22:30.040Z,419.00
2023-04-24T02:23:30.031Z,420.00
2023-04-24T02:24:30.092Z,421.00
2023-04-24T02:25:30.153Z,422.00
2023-04-24T02:26:30.186Z,422.00
2023-04-24T02:27:30.254Z,420.00
2023-04-24T02:28:30.331Z,422.00
2023-04-24T02:29:30.343Z,422.00
2023-04-24T02:30:30.409Z,420.00
2023-04-24T02:31:30.463Z,421.00
2023-04-24T02:32:30.486Z,422.00
2023-04-24T02:33:30.539Z,421.00
2023-04-24T02:34:30.608Z,421.00
2023-04-24T02:35:30.772Z,418.00
2023-04-24T02:36:30.684Z,421.00
2023-04-24T02:37:30.731Z,422.00
2023-04-24T02:38:30.785Z,424.00
2023-04-24T02:39:30.830Z,426.00
2023-04-24T02:40:30.846Z,425.00
2023-04-24T02:41:30.898Z,424.00
2023-04-24T02:42:30.903Z,423.00
2023-04-24T02:43:30.970Z,425.00
2023-04-24T02:44:30.980Z,425.00
2023-04-24T02:45:31.068Z,425.00
2023-04-24T02:46:31.083Z,426.00
2023-04-24T02:47:31.146Z,426.00
2023-04-24T02:48:31.101Z,425.00
2023-04-24T02:49:31.144Z,422.00
2023-04-24T02:50:31.165Z,420.00
2023-04-24T02:51:31.232Z,419.00
2023-04-24T02:52:31.235Z,419.00
2023-04-24T02:53:31.278Z,422.00
2023-04-24T02:54:31.282Z,423.00
2023-04-24T02:55:31.326Z,424.00
2023-04-24T02:56:31.346Z,425.00
2023-04-24T02:57:31.396Z,426.00
2023-04-24T02:58:31.405Z,426.00
2023-04-24T02:59:31.415Z,424.00
2023-04-24T03:00:31.433Z,424.00
2023-04-24T03:01:31.452Z,425.00
2023-04-24T03:02:31.603Z,425.00
2023-04-24T03:03:31.794Z,426.00
2023-04-24T03:04:31.660Z,426.00
2023-04-24T03:05:31.532Z,430.00
2023-04-24T03:06:31.537Z,433.00
2023-04-24T03:07:31.545Z,433.00
2023-04-24T03:08:31.576Z,430.00
2023-04-24T03:09:31.612Z,429.00
2023-04-24T03:10:31.605Z,429.00
2023-04-24T03:11:31.597Z,428.00
2023-04-24T03:12:31.631Z,429.00
2023-04-24T03:13:31.640Z,426.00
2023-04-24T03:14:31.637Z,427.00
2023-04-24T03:15:31.747Z,427.00
2023-04-24T03:16:31.698Z,426.00
2023-04-24T03:17:31.737Z,425.00
2023-04-24T03:18:31.703Z,426.00
2023-04-24T03:19:31.730Z,424.00
2023-04-24T03:20:31.750Z,424.00
2023-04-24T03:21:31.762Z,426.00
2023-04-24T03:22:31.748Z,424.00
2023-04-24T03:23:31.749Z,422.00
2023-04-24T03:24:31.790Z,425.00
2023-04-24T03:25:31.803Z,424.00
2023-04-24T03:26:31.904Z,424.00
2023-04-24T03:27:31.847Z,425.00
2023-04-24T03:28:31.844Z,424.00
2023-04-24T03:29:31.875Z,425.00
2023-04-24T03:30:31.853Z,426.00
2023-04-24T03:31:31.957Z,426.00
2023-04-24T03:32:31.936Z,426.00
2023-04-24T03:33:31.912Z,423.00
2023-04-24T03:34:31.940Z,424.00
2023-04-24T03:35:31.920Z,426.00
2023-04-24T03:36:31.938Z,426.00
2023-04-24T03:37:31.952Z,425.00
2023-04-24T03:38:32.001Z,423.00
2023-04-24T03:39:31.977Z,423.00
2023-04-24T03:40:32.026Z,426.00
2023-04-24T03:41:32.043Z,427.00
2023-04-24T03:42:32.036Z,429.00
2023-04-24T03:43:32.032Z,429.00
2023-04-24T03:44:32.048Z,427.00
2023-04-24T03:45:32.058Z,429.00
2023-04-24T03:46:32.107Z,429.00
2023-04-24T03:47:32.131Z,430.00
2023-04-24T03:48:32.135Z,428.00
2023-04-24T03:49:32.140Z,426.00
2023-04-24T03:50:32.142Z,425.00
2023-04-24T03:51:32.221Z,426.00
2023-04-24T03:52:32.143Z,426.00
2023-04-24T03:53:32.153Z,424.00
2023-04-24T03:54:32.192Z,425.00
2023-04-24T03:55:32.195Z,427.00
2023-04-24T03:56:32.242Z,425.00
2023-04-24T03:57:32.224Z,428.00
2023-04-24T03:58:32.249Z,427.00
2023-04-24T03:59:32.249Z,428.00
2023-04-24T04:00:32.234Z,429.00
2023-04-24T04:01:32.249Z,429.00
2023-04-24T04:02:32.449Z,429.00
2023-04-24T04:03:32.457Z,428.00
2023-04-24T04:04:32.597Z,426.00
2023-04-24T04:05:32.415Z,423.00
2023-04-24T04:06:32.418Z,423.00
2023-04-24T04:07:32.453Z,424.00
2023-04-24T04:08:32.491Z,424.00
2023-04-24T04:09:32.582Z,423.00
2023-04-24T04:10:32.616Z,422.00
2023-04-24T04:11:32.679Z,423.00
2023-04-24T04:12:32.717Z,422.00
2023-04-24T04:13:32.753Z,421.00
2023-04-24T04:14:32.839Z,421.00
2023-04-24T04:15:32.849Z,419.00
2023-04-24T04:16:32.908Z,419.00
2023-04-24T04:17:33.004Z,422.00
2023-04-24T04:18:33.013Z,421.00
2023-04-24T04:19:33.175Z,424.00
2023-04-24T04:20:33.145Z,424.00
2023-04-24T04:21:33.203Z,424.00
2023-04-24T04:22:33.253Z,425.00
2023-04-24T04:23:33.323Z,426.00
2023-04-24T04:24:33.333Z,427.00
2023-04-24T04:25:33.410Z,426.00
2023-04-24T04:26:33.527Z,426.00
2023-04-24T04:27:33.580Z,428.00
2023-04-24T04:28:33.562Z,426.00
2023-04-24T04:29:33.660Z,424.00
2023-04-24T04:30:33.677Z,422.00
2023-04-24T04:31:33.762Z,422.00
2023-04-24T04:32:33.785Z,423.00
2023-04-24T04:33:33.828Z,423.00
2023-04-24T04:34:33.859Z,424.00
2023-04-24T04:35:33.890Z,424.00
2023-04-24T04:36:33.949Z,423.00
2023-04-24T04:37:34.004Z,425.00
2023-04-24T04:38:34.034Z,425.00
2023-04-24T04:39:34.092Z,424.00
2023-04-24T04:40:34.138Z,426.00
2023-04-24T04:41:34.196Z,427.00
2023-04-24T04:42:34.239Z,428.00
2023-04-24T04:43:34.326Z,426.00
2023-04-24T04:44:34.439Z,425.00
2023-04-24T04:45:34.458Z,422.00
2023-04-24T04:46:34.588Z,421.00
2023-04-24T04:47:34.655Z,421.00
2023-04-24T04:48:34.638Z,422.00
2023-04-24T04:49:34.663Z,421.00
2023-04-24T04:50:34.825Z,423.00
2023-04-24T04:51:34.769Z,425.00
2023-04-24T04:52:34.776Z,424.00
2023-04-24T04:53:34.848Z,422.00
2023-04-24T04:54:34.894Z,423.00
2023-04-24T04:55:34.971Z,422.00
2023-04-24T04:56:34.996Z,423.00
2023-04-24T04:57:35.060Z,424.00
2023-04-24T04:58:35.150Z,425.00
2023-04-24T04:59:35.157Z,424.00
2023-04-24T05:00:36.235Z,425.00
2023-04-24T05:01:42.300Z,426.00
2023-04-24T05:02:35.372Z,425.00
2023-04-24T05:03:35.467Z,426.00
2023-04-24T05:04:35.732Z,428.00
2023-04-24T05:05:35.326Z,429.00
2023-04-24T05:06:35.348Z,432.00
2023-04-24T05:07:35.376Z,431.00
2023-04-24T05:08:35.386Z,433.00
2023-04-24T05:09:35.372Z,435.00
2023-04-24T05:10:35.396Z,435.00
2023-04-24T05:11:35.390Z,438.00
2023-04-24T05:12:35.367Z,437.00
2023-04-24T05:13:40.337Z,437.00
2023-04-24T05:14:36.428Z,436.00
2023-04-24T05:15:35.405Z,437.00
2023-04-24T05:16:35.439Z,438.00
2023-04-24T05:17:35.461Z,440.00
2023-04-24T05:18:35.444Z,441.00
2023-04-24T05:19:35.440Z,439.00
2023-04-24T05:20:35.435Z,440.00
2023-04-24T05:21:35.437Z,441.00
2023-04-24T05:22:35.443Z,441.00
2023-04-24T05:23:35.464Z,440.00
2023-04-24T05:24:35.438Z,438.00
2023-04-24T05:25:35.538Z,437.00
2023-04-24T05:26:35.612Z,433.00
2023-04-24T05:27:35.678Z,436.00
2023-04-24T05:28:35.734Z,436.00
2023-04-24T05:29:35.797Z,434.00
2023-04-24T05:30:35.843Z,431.00
2023-04-24T05:31:35.977Z,430.00
2023-04-24T05:32:36.491Z,430.00
2023-04-24T05:33:36.004Z,451.00
2023-04-24T05:34:36.041Z,506.00
2023-04-24T05:35:36.114Z,506.00
2023-04-24T05:36:36.189Z,501.00
2023-04-24T05:37:36.244Z,497.00
2023-04-24T05:38:36.512Z,496.00
2023-04-24T05:39:36.332Z,506.00
2023-04-24T05:40:36.304Z,518.00
2023-04-24T05:41:36.335Z,517.00
2023-04-24T05:42:36.360Z,527.00
2023-04-24T05:43:36.531Z,545.00
2023-04-24T05:44:36.352Z,555.00
2023-04-24T05:45:36.399Z,564.00
2023-04-24T05:46:43.499Z,550.00
2023-04-24T05:47:36.481Z,536.00
2023-04-24T05:48:36.514Z,531.00
2023-04-24T05:49:36.446Z,640.00
2023-04-24T05:50:37.315Z,691.00
2023-04-24T05:51:36.454Z,699.00
2023-04-24T05:52:36.448Z,715.00
2023-04-24T05:53:36.462Z,742.00
2023-04-24T05:54:36.459Z,759.00
2023-04-24T05:55:36.483Z,777.00
2023-04-24T05:56:36.459Z,807.00
2023-04-24T05:57:36.453Z,867.00
2023-04-24T05:58:36.478Z,816.00
2023-04-24T05:59:36.487Z,924.00
2023-04-24T06:00:36.469Z,936.00
2023-04-24T06:01:36.468Z,952.00
2023-04-24T06:02:36.593Z,964.00
2023-04-24T06:03:36.614Z,980.00
2023-04-24T06:04:36.700Z,1000.00
2023-04-24T06:05:36.420Z,1012.00
2023-04-24T06:06:36.398Z,1018.00
2023-04-24T06:07:36.426Z,1030.00
2023-04-24T06:08:36.371Z,1050.00
2023-04-24T06:09:36.393Z,1075.00
2023-04-24T06:10:36.392Z,1089.00
2023-04-24T06:11:36.358Z,1105.00
2023-04-24T06:12:36.328Z,1113.00
2023-04-24T06:13:36.333Z,1125.00
2023-04-24T06:14:36.334Z,1139.00
2023-04-24T06:15:36.345Z,1172.00
2023-04-24T06:16:36.355Z,1209.00
2023-04-24T06:17:36.307Z,1204.00
2023-04-24T06:18:36.323Z,1205.00
2023-04-24T06:19:36.275Z,1203.00
2023-04-24T06:20:36.351Z,1198.00
2023-04-24T06:21:36.250Z,1180.00
2023-04-24T06:22:36.274Z,1151.00
2023-04-24T06:23:36.245Z,1134.00
2023-04-24T06:24:36.243Z,1115.00
2023-04-24T06:25:36.300Z,1101.00
2023-04-24T06:26:36.287Z,1098.00
2023-04-24T06:27:36.328Z,1005.00
2023-04-24T06:28:36.298Z,950.00
2023-04-24T06:29:36.326Z,989.00
2023-04-24T06:30:36.314Z,1002.00
2023-04-24T06:31:36.354Z,991.00
2023-04-24T06:32:36.353Z,985.00
2023-04-24T06:33:36.352Z,991.00
2023-04-24T06:34:36.419Z,991.00
2023-04-24T06:35:36.406Z,984.00
2023-04-24T06:36:36.474Z,837.00
2023-04-24T06:37:36.495Z,657.00
2023-04-24T06:38:36.993Z,681.00
2023-04-24T06:39:36.565Z,672.00
2023-04-24T06:40:36.624Z,603.00
2023-04-24T06:41:36.600Z,627.00
2023-04-24T06:42:36.615Z,627.00
2023-04-24T06:43:36.663Z,648.00
2023-04-24T06:44:36.634Z,691.00
2023-04-24T06:45:36.726Z,679.00
2023-04-24T06:46:36.853Z,668.00
2023-04-24T06:47:36.659Z,663.00
2023-04-24T06:48:36.629Z,626.00
2023-04-24T06:49:36.598Z,606.00
2023-04-24T06:50:36.650Z,628.00
2023-04-24T06:51:36.883Z,633.00
2023-04-24T06:52:36.631Z,636.00
2023-04-24T06:53:36.681Z,634.00
2023-04-24T06:54:36.784Z,639.00
2023-04-24T06:55:36.813Z,641.00
2023-04-24T06:56:36.844Z,641.00
2023-04-24T06:57:36.871Z,635.00
2023-04-24T06:58:36.967Z,626.00
2023-04-24T06:59:36.998Z,620.00
2023-04-24T07:00:37.037Z,613.00
2023-04-24T07:01:37.107Z,605.00
2023-04-24T07:02:37.253Z,599.00
2023-04-24T07:03:37.349Z,599.00
2023-04-24T07:04:37.394Z,602.00
2023-04-24T07:05:37.354Z,621.00
2023-04-24T07:06:37.369Z,602.00
2023-04-24T07:07:37.435Z,594.00
2023-04-24T07:08:37.561Z,594.00
2023-04-24T07:09:37.623Z,588.00
2023-04-24T07:10:37.614Z,586.00
2023-04-24T07:11:37.675Z,587.00
2023-04-24T07:12:37.680Z,587.00
2023-04-24T07:13:37.738Z,582.00
2023-04-24T07:14:37.811Z,582.00
2023-04-24T07:15:37.947Z,581.00
2023-04-24T07:16:37.995Z,577.00
2023-04-24T07:17:37.989Z,575.00
2023-04-24T07:18:38.064Z,573.00
2023-04-24T07:19:38.074Z,573.00
2023-04-24T07:20:38.158Z,581.00
2023-04-24T07:21:38.172Z,580.00
2023-04-24T07:22:38.219Z,575.00
2023-04-24T07:23:38.231Z,576.00
2023-04-24T07:24:38.300Z,581.00
2023-04-24T07:25:38.270Z,591.00
2023-04-24T07:26:38.302Z,594.00
2023-04-24T07:27:38.363Z,596.00
2023-04-24T07:28:38.425Z,598.00
2023-04-24T07:29:38.445Z,600.00
2023-04-24T07:30:38.453Z,600.00
2023-04-24T07:31:38.435Z,600.00
2023-04-24T07:32:38.523Z,600.00
2023-04-24T07:33:38.557Z,605.00
2023-04-24T07:34:38.431Z,605.00
2023-04-24T07:35:38.434Z,611.00
2023-04-24T07:36:38.477Z,604.00
2023-04-24T07:37:38.488Z,602.00
2023-04-24T07:38:38.540Z,663.00
2023-04-24T07:39:38.550Z,643.00
2023-04-24T07:40:38.553Z,628.00
2023-04-24T07:41:38.563Z,618.00
2023-04-24T07:42:38.561Z,611.00
2023-04-24T07:43:39.006Z,609.00
2023-04-24T07:44:39.016Z,604.00
2023-04-24T07:45:38.764Z,596.00
2023-04-24T07:46:38.619Z,582.00
2023-04-24T07:47:38.609Z,600.00
2023-04-24T07:48:38.607Z,589.00
2023-04-24T07:49:38.613Z,574.00
2023-04-24T07:50:38.633Z,564.00
2023-04-24T07:51:38.674Z,562.00
2023-04-24T07:52:38.705Z,561.00
2023-04-24T07:53:38.744Z,560.00
2023-04-24T07:54:39.023Z,561.00
2023-04-24T07:55:38.775Z,563.00
2023-04-24T07:56:38.790Z,559.00
2023-04-24T07:57:38.796Z,561.00
2023-04-24T07:58:38.847Z,562.00
2023-04-24T07:59:38.881Z,560.00
2023-04-24T08:00:38.884Z,561.00
2023-04-24T08:01:38.964Z,566.00
2023-04-24T08:02:39.135Z,571.00
2023-04-24T08:03:39.094Z,574.00
2023-04-24T08:04:39.185Z,579.00
2023-04-24T08:05:41.031Z,582.00
2023-04-24T08:06:39.079Z,579.00
2023-04-24T08:07:39.098Z,577.00
2023-04-24T08:08:39.061Z,577.00
2023-04-24T08:09:39.551Z,575.00
2023-04-24T08:10:39.122Z,569.00
2023-04-24T08:11:39.168Z,574.00
2023-04-24T08:12:39.208Z,578.00
2023-04-24T08:13:39.197Z,571.00
2023-04-24T08:14:40.048Z,575.00
2023-04-24T08:15:39.221Z,645.00
2023-04-24T08:16:39.299Z,650.00
2023-04-24T08:17:39.250Z,648.00
2023-04-24T08:18:39.250Z,655.00
2023-04-24T08:19:39.565Z,677.00
2023-04-24T08:20:39.337Z,643.00
2023-04-24T08:21:40.050Z,652.00
2023-04-24T08:22:39.454Z,730.00
2023-04-24T08:23:39.531Z,737.00
2023-04-24T08:24:39.516Z,753.00
2023-04-24T08:25:39.571Z,754.00
2023-04-24T08:26:39.647Z,752.00
2023-04-24T08:27:39.643Z,761.00
2023-04-24T08:28:39.686Z,779.00
2023-04-24T08:29:39.786Z,819.00
2023-04-24T08:30:39.729Z,843.00
2023-04-24T08:31:40.566Z,877.00
2023-04-24T08:32:39.864Z,710.00
2023-04-24T08:33:39.749Z,763.00
2023-04-24T08:34:39.802Z,778.00
2023-04-24T08:35:39.854Z,999.00
2023-04-24T08:36:47.206Z,1112.00
2023-04-24T08:37:40.843Z,984.00
2023-04-24T08:38:40.603Z,948.00
2023-04-24T08:39:39.867Z,958.00
2023-04-24T08:40:39.811Z,981.00
2023-04-24T08:41:39.863Z,873.00
2023-04-24T08:42:39.774Z,859.00
2023-04-24T08:43:39.802Z,851.00
2023-04-24T08:44:40.072Z,763.00
2023-04-24T08:45:39.939Z,753.00
2023-04-24T08:46:39.891Z,761.00
2023-04-24T08:47:39.836Z,764.00
2023-04-24T08:48:39.888Z,851.00
2023-04-24T08:49:39.901Z,876.00
2023-04-24T08:50:39.940Z,873.00
2023-04-24T08:51:40.028Z,751.00
2023-04-24T08:52:40.043Z,688.00
2023-04-24T08:53:40.075Z,655.00
2023-04-24T08:54:40.561Z,657.00
2023-04-24T08:55:40.246Z,659.00
2023-04-24T08:56:40.180Z,737.00
2023-04-24T08:57:40.280Z,715.00
2023-04-24T08:58:40.265Z,713.00
2023-04-24T08:59:40.558Z,704.00
2023-04-24T09:00:40.391Z,714.00
2023-04-24T09:01:40.465Z,726.00
2023-04-24T09:02:40.554Z,729.00
2023-04-24T09:03:40.620Z,724.00
2023-04-24T09:04:41.188Z,713.00
2023-04-24T09:05:40.673Z,704.00
2023-04-24T09:06:40.757Z,709.00
2023-04-24T09:07:40.741Z,717.00
2023-04-24T09:08:40.850Z,712.00
2023-04-24T09:09:40.998Z,692.00
2023-04-24T09:10:40.882Z,687.00
2023-04-24T09:11:40.937Z,687.00
2023-04-24T09:12:40.986Z,682.00
2023-04-24T09:13:41.061Z,677.00
2023-04-24T09:14:41.568Z,678.00
2023-04-24T09:15:41.157Z,676.00
2023-04-24T09:16:41.243Z,672.00
2023-04-24T09:17:41.323Z,674.00
2023-04-24T09:18:41.325Z,670.00
2023-04-24T09:19:41.675Z,670.00
2023-04-24T09:20:41.450Z,668.00
2023-04-24T09:21:41.561Z,667.00
2023-04-24T09:22:41.709Z,671.00
2023-04-24T09:23:41.633Z,678.00
2023-04-24T09:24:41.694Z,679.00
2023-04-24T09:25:42.064Z,677.00
2023-04-24T09:26:41.829Z,682.00
2023-04-24T09:27:41.858Z,683.00
2023-04-24T09:28:41.955Z,675.00
2023-04-24T09:29:42.422Z,672.00
2023-04-24T09:30:42.050Z,677.00
2023-04-24T09:31:42.136Z,680.00
2023-04-24T09:32:42.209Z,686.00
2023-04-24T09:33:42.252Z,697.00
2023-04-24T09:34:42.265Z,701.00
2023-04-24T09:35:42.298Z,704.00
2023-04-24T09:36:42.368Z,704.00
2023-04-24T09:37:42.438Z,704.00
2023-04-24T09:38:42.450Z,703.00
2023-04-24T09:39:42.732Z,705.00
2023-04-24T09:40:42.609Z,708.00
2023-04-24T09:41:42.636Z,736.00
2023-04-24T09:42:42.729Z,724.00
2023-04-24T09:43:42.732Z,718.00
2023-04-24T09:44:42.984Z,611.00
2023-04-24T09:45:43.125Z,714.00
2023-04-24T09:46:43.027Z,733.00
2023-04-24T09:47:42.965Z,742.00
2023-04-24T09:48:42.971Z,794.00
2023-04-24T09:49:43.146Z,778.00
2023-04-24T09:50:43.098Z,774.00
2023-04-24T09:51:43.116Z,767.00
2023-04-24T09:52:43.137Z,762.00
2023-04-24T09:53:43.168Z,743.00
2023-04-24T09:54:43.257Z,744.00
2023-04-24T09:55:43.586Z,730.00
2023-04-24T09:56:43.306Z,733.00
2023-04-24T09:57:43.382Z,735.00
2023-04-24T09:58:43.445Z,730.00
2023-04-24T09:59:43.597Z,725.00
2023-04-24T10:00:43.598Z,723.00
2023-04-24T10:01:43.653Z,718.00
2023-04-24T10:02:43.623Z,666.00
2023-04-24T10:03:43.776Z,618.00
2023-04-24T10:04:43.720Z,733.00
2023-04-24T10:05:43.728Z,700.00
2023-04-24T10:06:43.788Z,684.00
2023-04-24T10:07:43.834Z,677.00
2023-04-24T10:08:43.857Z,688.00
2023-04-24T10:09:44.048Z,764.00
2023-04-24T10:10:43.925Z,749.00
2023-04-24T10:11:43.999Z,742.00
2023-04-24T10:12:44.079Z,744.00
2023-04-24T10:13:44.053Z,736.00
2023-04-24T10:14:44.798Z,710.00
2023-04-24T10:15:44.611Z,711.00
2023-04-24T10:16:44.223Z,718.00
2023-04-24T10:17:44.284Z,721.00
2023-04-24T10:18:44.296Z,720.00
2023-04-24T10:19:44.558Z,722.00
2023-04-24T10:20:44.591Z,740.00
2023-04-24T10:21:44.406Z,744.00
2023-04-24T10:22:44.501Z,737.00
2023-04-24T10:23:44.431Z,730.00
2023-04-24T10:24:44.616Z,724.00
2023-04-24T10:25:44.601Z,727.00
2023-04-24T10:26:44.539Z,722.00
2023-04-24T10:27:44.562Z,720.00
2023-04-24T10:28:44.605Z,711.00
2023-04-24T10:29:44.640Z,712.00
2023-04-24T10:30:44.727Z,729.00
2023-04-24T10:31:44.712Z,733.00
2023-04-24T10:32:44.815Z,728.00
2023-04-24T10:33:44.839Z,717.00
2023-04-24T10:34:44.853Z,714.00
2023-04-24T10:35:44.900Z,711.00
2023-04-24T10:36:44.908Z,709.00
2023-04-24T10:37:44.993Z,711.00
2023-04-24T10:38:45.020Z,621.00
2023-04-24T10:39:45.065Z,624.00
2023-04-24T10:40:45.100Z,631.00
2023-04-24T10:41:45.164Z,625.00
2023-04-24T10:42:45.198Z,612.00
2023-04-24T10:43:45.273Z,727.00
2023-04-24T10:44:45.315Z,741.00
2023-04-24T10:45:45.612Z,737.00
2023-04-24T10:46:45.513Z,735.00
2023-04-24T10:47:45.404Z,726.00
2023-04-24T10:48:45.462Z,717.00
2023-04-24T10:49:45.503Z,708.00
2023-04-24T10:50:45.564Z,706.00
2023-04-24T10:51:45.613Z,714.00
2023-04-24T10:52:45.623Z,722.00
2023-04-24T10:53:45.648Z,740.00
2023-04-24T10:54:45.689Z,743.00
2023-04-24T10:55:45.720Z,754.00
2023-04-24T10:56:45.793Z,780.00
2023-04-24T10:57:45.822Z,766.00
2023-04-24T10:58:46.149Z,780.00
2023-04-24T10:59:45.805Z,787.00
2023-04-24T11:00:45.886Z,791.00
2023-04-24T11:01:45.881Z,796.00
2023-04-24T11:02:45.976Z,798.00
2023-04-24T11:03:46.128Z,807.00
2023-04-24T11:04:46.054Z,823.00
2023-04-24T11:05:45.930Z,826.00
2023-04-24T11:06:46.113Z,827.00
2023-04-24T11:07:45.941Z,827.00
2023-04-24T11:08:45.944Z,820.00
2023-04-24T11:09:46.011Z,815.00
2023-04-24T11:10:46.043Z,818.00
2023-04-24T11:11:46.038Z,819.00
2023-04-24T11:12:45.998Z,816.00
2023-04-24T11:13:46.041Z,815.00
2023-04-24T11:14:46.066Z,845.00
2023-04-24T11:15:46.070Z,830.00
2023-04-24T11:16:46.094Z,824.00
2023-04-24T11:17:46.085Z,820.00
2023-04-24T11:18:46.088Z,821.00
2023-04-24T11:19:46.107Z,798.00
2023-04-24T11:20:46.116Z,814.00
2023-04-24T11:21:46.166Z,816.00
2023-04-24T11:22:46.171Z,818.00
2023-04-24T11:23:46.140Z,796.00
2023-04-24T11:24:46.182Z,782.00
2023-04-24T11:25:46.204Z,807.00
2023-04-24T11:26:46.612Z,824.00
2023-04-24T11:27:46.236Z,808.00
2023-04-24T11:28:46.257Z,808.00
2023-04-24T11:29:46.283Z,855.00
2023-04-24T11:30:46.395Z,865.00
2023-04-24T11:31:46.665Z,881.00
2023-04-24T11:32:46.968Z,873.00
2023-04-24T11:33:46.345Z,749.00
2023-04-24T11:34:46.415Z,765.00
2023-04-24T11:35:46.423Z,796.00
2023-04-24T11:36:46.639Z,825.00
2023-04-24T11:37:47.585Z,837.00
2023-04-24T11:38:47.511Z,850.00
2023-04-24T11:39:46.496Z,854.00
2023-04-24T11:40:46.467Z,849.00
2023-04-24T11:41:46.473Z,831.00
2023-04-24T11:42:46.472Z,816.00
2023-04-24T11:43:46.414Z,813.00
2023-04-24T11:44:46.419Z,811.00
2023-04-24T11:45:46.457Z,808.00
2023-04-24T11:46:46.417Z,803.00
2023-04-24T11:47:46.565Z,804.00
2023-04-24T11:48:46.338Z,801.00
2023-04-24T11:49:46.325Z,759.00
2023-04-24T11:50:46.336Z,740.00
2023-04-24T11:51:53.166Z,725.00
2023-04-24T11:52:47.384Z,720.00
2023-04-24T11:53:47.732Z,723.00
2023-04-24T11:54:46.306Z,716.00
2023-04-24T11:55:46.303Z,709.00
2023-04-24T11:56:46.304Z,706.00
2023-04-24T11:57:46.255Z,708.00
2023-04-24T11:58:46.240Z,714.00
2023-04-24T11:59:46.224Z,716.00
2023-04-24T12:00:46.196Z,719.00
2023-04-24T12:01:46.192Z,719.00
2023-04-24T12:02:46.327Z,720.00
2023-04-24T12:03:46.348Z,720.00
2023-04-24T12:04:46.446Z,722.00
2023-04-24T12:05:46.415Z,721.00
2023-04-24T12:06:46.135Z,721.00
2023-04-24T12:07:46.139Z,719.00
2023-04-24T12:08:46.078Z,716.00
2023-04-24T12:09:47.486Z,711.00
2023-04-24T12:10:46.093Z,701.00
2023-04-24T12:11:46.056Z,689.00
2023-04-24T12:12:46.042Z,680.00
2023-04-24T12:13:46.007Z,676.00
2023-04-24T12:14:46.030Z,673.00
2023-04-24T12:15:46.012Z,672.00
2023-04-24T12:16:46.012Z,669.00
2023-04-24T12:17:46.001Z,670.00
2023-04-24T12:18:45.994Z,669.00
2023-04-24T12:19:46.001Z,667.00
2023-04-24T12:20:45.965Z,664.00
2023-04-24T12:21:45.982Z,660.00
2023-04-24T12:22:45.937Z,655.00
2023-04-24T12:23:45.927Z,655.00
2023-04-24T12:24:45.878Z,654.00
2023-04-24T12:25:45.895Z,649.00
2023-04-24T12:26:45.887Z,647.00
2023-04-24T12:27:45.872Z,646.00